Time;durP1;ratioP1;P1;durP2;ratioP2;P2;SDS_P1;SDS_P2;PMS_P1;PMS_P2;Temp;Humidity;BMP_temperature;BMP_pressure;BME280_temperature;BME280_humidity;BME280_pressure;Samples;Min_cycle;Max_cycle;Signal;HPM_P1;HPM_P2
2023/05/13 00:04:16;;;;;;;19.03;4.60;;;;;;;13.47;51.00;101385.27;5027280;57;1138805;-76
2023/05/13 00:09:22;;;;;;;6.73;4.33;;;;;;;13.43;51.15;101379.36;5013129;56;1141075;-76
2023/05/13 00:14:27;;;;;;;10.10;4.97;;;;;;;13.35;51.29;101385.72;5013058;56;1139009;-76
2023/05/13 00:19:33;;;;;;;9.83;4.53;;;;;;;13.32;51.20;101381.96;5079507;56;1141178;-76
2023/05/13 00:24:38;;;;;;;12.57;4.40;;;;;;;13.31;51.46;101394.88;5032260;57;1138823;-76
2023/05/13 00:29:44;;;;;;;6.93;4.30;;;;;;;13.25;51.47;101394.03;5012805;57;1140817;-76
2023/05/13 00:34:50;;;;;;;12.03;4.43;;;;;;;13.26;51.70;101393.06;5012953;57;1138941;-76
2023/05/13 00:39:55;;;;;;;6.23;4.40;;;;;;;13.30;51.80;101391.85;4985708;57;1140967;-76
2023/05/13 00:45:01;;;;;;;6.75;4.08;;;;;;;13.26;51.80;101387.75;5013362;57;1138759;-77
2023/05/13 00:50:08;;;;;;;13.72;4.10;;;;;;;13.17;51.81;101385.28;5013712;57;1138906;-75
2023/05/13 00:55:14;;;;;;;12.43;4.10;;;;;;;13.11;52.05;101382.23;5032845;56;1140901;-76
2023/05/13 01:00:20;;;;;;;7.43;4.40;;;;;;;12.98;52.18;101388.45;5088480;56;1140857;-75
2023/05/13 01:05:33;;;;;;;7.77;4.37;;;;;;;12.88;52.52;101391.88;5097217;56;1138746;-76
2023/05/13 01:10:51;;;;;;;7.97;3.83;;;;;;;12.78;52.80;101389.06;5097413;56;1139118;-76
2023/05/13 01:16:12;;;;;;;5.43;4.20;;;;;;;12.77;53.02;101397.13;5092532;56;1138841;-76
2023/05/13 01:21:27;;;;;;;8.53;4.73;;;;;;;12.73;53.03;101402.28;5065638;56;1138963;-76
2023/05/13 01:26:33;;;;;;;11.63;3.97;;;;;;;12.70;53.31;101404.67;4932189;56;1139001;-75
2023/05/13 01:31:41;;;;;;;6.50;3.95;;;;;;;12.60;53.40;101406.31;5013875;56;1141066;-76
2023/05/13 01:36:48;;;;;;;7.13;4.93;;;;;;;12.47;53.66;101402.36;5028846;57;1138829;-75
2023/05/13 01:41:56;;;;;;;21.93;5.33;;;;;;;12.48;54.22;101412.02;5024175;57;1138704;-77
2023/05/13 01:47:02;;;;;;;9.78;4.40;;;;;;;12.49;54.43;101414.20;4932852;57;1141070;-76
2023/05/13 01:52:09;;;;;;;12.37;4.70;;;;;;;12.33;54.85;101410.45;4952724;57;1138838;-77
2023/05/13 01:57:14;;;;;;;13.60;5.93;;;;;;;12.18;55.16;101419.02;5066953;56;1140954;-75
2023/05/13 02:02:20;;;;;;;9.53;4.60;;;;;;;12.07;55.43;101426.03;4984332;57;1141042;-77
2023/05/13 02:07:26;;;;;;;8.80;4.80;;;;;;;11.97;55.69;101424.00;5086910;56;1138634;-76
2023/05/13 02:12:32;;;;;;;10.73;5.30;;;;;;;11.91;56.10;101420.46;4984407;57;1138833;-76
2023/05/13 02:17:37;;;;;;;8.07;4.70;;;;;;;11.97;56.56;101413.87;5087038;56;1140800;-76
2023/05/13 02:22:43;;;;;;;8.40;6.17;;;;;;;11.97;56.75;101417.37;5061339;56;1139235;-76
2023/05/13 02:27:49;;;;;;;10.90;5.43;;;;;;;11.69;57.27;101416.20;5013457;57;1138914;-76
2023/05/13 02:32:57;;;;;;;8.13;5.40;;;;;;;11.52;57.89;101423.12;5013335;56;1141381;-75
2023/05/13 02:38:08;;;;;;;11.78;5.83;;;;;;;11.57;58.65;101422.34;4951884;58;1138814;-75
2023/05/13 02:43:10;;;;;;;12.03;5.25;;;;;;;11.47;59.02;101433.16;4927920;58;1141061;-75
2023/05/13 02:48:24;;;;;;;13.70;6.43;;;;;;;11.39;59.48;101432.37;4931604;57;1140893;-76
2023/05/13 02:53:30;;;;;;;15.15;5.80;;;;;;;11.33;59.74;101431.44;4942512;58;1140904;-77
2023/05/13 02:58:38;;;;;;;10.80;6.53;;;;;;;11.28;60.06;101430.91;5027511;57;1140778;-76
2023/05/13 03:03:43;;;;;;;10.17;6.63;;;;;;;11.25;60.60;101428.45;5012888;57;1140874;-76
2023/05/13 03:08:49;;;;;;;10.67;5.67;;;;;;;11.31;60.76;101436.45;5013214;57;1140810;-75
2023/05/13 03:13:54;;;;;;;10.33;7.73;;;;;;;11.31;60.88;101437.30;5032500;57;1141057;-75
2023/05/13 03:19:00;;;;;;;10.00;7.27;;;;;;;11.19;61.07;101436.80;4980718;57;1140852;-76
2023/05/13 03:24:06;;;;;;;15.32;7.70;;;;;;;11.14;61.30;101438.44;4994780;57;1140823;-76
2023/05/13 03:29:12;;;;;;;13.25;8.40;;;;;;;11.08;61.73;101439.30;5018177;57;1140802;-76
2023/05/13 03:34:18;;;;;;;10.30;7.53;;;;;;;11.13;61.84;101445.16;5045772;56;1141003;-74
2023/05/13 03:39:25;;;;;;;14.77;8.00;;;;;;;11.05;61.71;101442.14;4990231;57;1140991;-76
2023/05/13 03:44:31;;;;;;;13.50;8.27;;;;;;;11.10;62.32;101446.67;5012748;57;1141097;-75
2023/05/13 03:49:37;;;;;;;13.37;7.97;;;;;;;11.11;62.00;101441.75;5008832;56;1140858;-75
2023/05/13 03:54:43;;;;;;;13.10;7.80;;;;;;;11.05;62.73;101446.11;5012221;57;1140894;-75
2023/05/13 03:59:49;;;;;;;12.93;7.87;;;;;;;10.98;63.24;101448.80;5012988;57;1140922;-75
2023/05/13 04:04:54;;;;;;;18.63;8.00;;;;;;;10.98;63.93;101456.27;4975770;57;1140880;-76
2023/05/13 04:10:00;;;;;;;14.77;8.27;;;;;;;11.07;63.93;101464.07;5001519;56;1140919;-75
2023/05/13 04:15:06;;;;;;;14.83;8.33;;;;;;;11.14;64.38;101464.06;5003295;57;1141234;-75
2023/05/13 04:20:12;;;;;;;16.97;7.80;;;;;;;11.25;64.76;101468.18;4975485;57;1140812;-74
2023/05/13 04:25:18;;;;;;;17.37;8.50;;;;;;;11.36;64.74;101471.44;4925977;58;1140814;-75
2023/05/13 04:30:24;;;;;;;23.97;8.03;;;;;;;11.41;64.67;101468.02;5085524;55;1140794;-75
2023/05/13 04:35:30;;;;;;;17.87;8.50;;;;;;;11.49;65.14;101473.65;5059387;56;1141080;-75
2023/05/13 04:40:37;;;;;;;17.67;7.93;;;;;;;11.55;65.36;101483.85;5013439;57;1140882;-75
2023/05/13 04:45:44;;;;;;;16.93;8.75;;;;;;;11.61;65.46;101474.16;5099715;56;1140798;-75
2023/05/13 04:50:51;;;;;;;17.20;7.50;;;;;;;11.71;65.69;101479.23;5129735;56;1140691;-76
2023/05/13 04:55:59;;;;;;;13.47;6.63;;;;;;;11.87;65.58;101481.73;5101898;56;1140951;-75
2023/05/13 05:01:06;;;;;;;21.15;9.15;;;;;;;11.97;65.39;101475.69;5101906;56;1141083;-75
2023/05/13 05:06:12;;;;;;;13.22;6.95;;;;;;;12.17;65.17;101479.64;5121834;56;1140825;-76
2023/05/13 05:11:18;;;;;;;23.03;7.63;;;;;;;12.38;64.68;101481.26;5102249;55;1140811;-75
2023/05/13 05:16:24;;;;;;;16.33;7.90;;;;;;;12.59;64.63;101469.62;5093898;55;1140951;-76
2023/05/13 05:21:30;;;;;;;10.38;7.30;;;;;;;12.85;64.19;101473.06;5119532;55;1140907;-75
2023/05/13 05:26:36;;;;;;;11.50;6.33;;;;;;;13.13;63.70;101479.43;5040522;55;1140863;-74
2023/05/13 05:31:44;;;;;;;14.95;6.67;;;;;;;13.38;62.91;101482.00;5051911;56;1140912;-75
2023/05/13 05:36:49;;;;;;;15.80;6.60;;;;;;;13.60;61.89;101483.05;5117427;56;1140839;-76
2023/05/13 05:41:56;;;;;;;18.60;7.50;;;;;;;13.72;61.03;101486.98;5083333;56;1141002;-75
2023/05/13 05:47:01;;;;;;;15.87;6.50;;;;;;;13.96;60.83;101476.77;4995726;57;1140921;-76
2023/05/13 05:52:09;;;;;;;16.65;6.30;;;;;;;14.17;60.44;101479.11;5035294;57;1140862;-75
2023/05/13 05:57:14;;;;;;;10.23;5.47;;;;;;;14.45;59.93;101487.16;5015349;56;1140826;-74
2023/05/13 06:02:20;;;;;;;12.67;6.10;;;;;;;14.73;60.42;101484.00;5016015;56;1140884;-75
2023/05/13 06:07:28;;;;;;;11.63;5.50;;;;;;;14.98;59.41;101488.20;5057130;56;1140937;-75
2023/05/13 06:12:33;;;;;;;12.93;5.70;;;;;;;15.16;59.81;101489.02;5059578;56;1140840;-75
2023/05/13 06:17:40;;;;;;;10.53;5.03;;;;;;;15.40;58.71;101491.87;5058761;56;1140956;-75
2023/05/13 06:22:46;;;;;;;13.20;5.10;;;;;;;15.72;59.75;101490.56;4944731;56;1140820;-76
2023/05/13 06:27:52;;;;;;;6.00;4.17;;;;;;;15.97;57.76;101487.99;4962463;57;1141012;-75
2023/05/13 06:33:02;;;;;;;9.75;3.90;;;;;;;16.18;56.14;101486.17;4974641;57;1138859;-77
2023/05/13 06:38:08;;;;;;;6.45;4.58;;;;;;;16.43;56.59;101486.72;5093991;56;1138751;-76
2023/05/13 06:43:15;;;;;;;7.87;4.10;;;;;;;16.69;55.81;101481.79;5073064;56;1138799;-76
2023/05/13 06:48:22;;;;;;;7.67;3.77;;;;;;;16.97;53.91;101479.69;5137816;55;1138912;-76
2023/05/13 06:53:28;;;;;;;11.17;3.60;;;;;;;17.19;48.08;101482.15;5208791;54;1138707;-76
2023/05/13 06:58:33;;;;;;;8.13;3.30;;;;;;;17.40;49.25;101483.87;5187750;55;1140833;-75
2023/05/13 07:03:39;;;;;;;6.03;3.50;;;;;;;17.63;44.64;101479.08;5188239;55;1138876;-76
2023/05/13 07:08:45;;;;;;;5.27;3.27;;;;;;;17.84;47.27;101484.67;5208291;54;1139020;-76
2023/05/13 07:13:50;;;;;;;5.07;2.90;;;;;;;18.06;46.10;101486.66;5177420;54;1138790;-74
2023/05/13 07:18:56;;;;;;;7.53;3.13;;;;;;;18.19;44.28;101487.19;5116992;55;1138913;-74
2023/05/13 07:24:04;;;;;;;6.83;3.35;;;;;;;18.42;44.93;101487.70;5094940;55;1138829;-76
2023/05/13 07:29:09;;;;;;;8.47;2.97;;;;;;;18.57;42.64;101483.06;5051278;56;1138775;-75
2023/05/13 07:34:15;;;;;;;8.45;2.90;;;;;;;18.68;39.96;101482.05;4988479;57;1138750;-75
2023/05/13 07:39:21;;;;;;;7.08;2.50;;;;;;;18.79;39.32;101480.52;5013400;57;1138861;-75
2023/05/13 07:44:26;;;;;;;2.30;2.13;;;;;;;18.91;37.43;101478.00;5013236;57;1138780;-74
2023/05/13 07:49:32;;;;;;;6.20;2.60;;;;;;;19.09;37.65;101478.55;5003225;57;1139042;-76
2023/05/13 07:54:38;;;;;;;16.83;3.00;;;;;;;19.26;37.39;101478.53;5011172;56;1138906;-75
2023/05/13 07:59:44;;;;;;;12.17;3.50;;;;;;;19.39;38.30;101481.37;5030396;57;1140785;-75
2023/05/13 08:04:49;;;;;;;14.73;3.43;;;;;;;19.61;39.92;101483.11;4983233;57;1140933;-75
2023/05/13 08:09:55;;;;;;;14.27;2.40;;;;;;;19.78;35.95;101469.83;5011471;56;1140754;-75
2023/05/13 08:15:06;;;;;;;6.37;2.03;;;;;;;19.90;36.81;101479.31;4959821;57;1141039;-73
2023/05/13 08:20:13;;;;;;;6.17;2.10;;;;;;;20.02;33.70;101474.88;5007598;57;1138789;-76
2023/05/13 08:25:19;;;;;;;7.23;2.00;;;;;;;20.13;34.70;101467.08;4975342;57;1138837;-75
2023/05/13 08:30:24;;;;;;;7.20;2.87;;;;;;;20.26;35.58;101466.65;5031326;56;1138825;-76
2023/05/13 08:35:31;;;;;;;11.12;2.55;;;;;;;20.55;33.76;101458.27;5011741;56;1138727;-73
2023/05/13 08:40:36;;;;;;;10.00;2.70;;;;;;;20.59;32.93;101463.17;5011434;56;1141119;-74
2023/05/13 08:45:46;;;;;;;6.15;2.17;;;;;;;20.71;33.67;101463.22;4884947;57;1140960;-74
2023/05/13 08:50:52;;;;;;;11.83;2.17;;;;;;;20.78;32.74;101462.58;4945840;58;1138795;-77
2023/05/13 08:55:58;;;;;;;7.75;2.55;;;;;;;20.82;31.92;101451.31;4932163;57;1140922;-74
2023/05/13 09:01:06;;;;;;;15.40;2.00;;;;;;;20.93;30.36;101461.77;4938345;58;1138913;-76
2023/05/13 09:06:12;;;;;;;19.10;2.65;;;;;;;20.97;28.30;101452.38;5018392;56;1140761;-75
2023/05/13 09:11:17;;;;;;;3.65;1.75;;;;;;;20.91;28.18;101440.95;4954666;57;1140841;-77
2023/05/13 09:16:25;;;;;;;17.60;1.93;;;;;;;20.97;27.09;101455.06;4992975;57;1138798;-73
2023/05/13 09:21:34;;;;;;;10.43;2.40;;;;;;;21.05;26.52;101451.06;4987689;57;1141100;-76
2023/05/13 09:26:42;;;;;;;3.42;1.95;;;;;;;21.19;27.42;101457.69;5015919;57;1140906;-75
2023/05/13 09:31:51;;;;;;;5.07;1.70;;;;;;;21.29;27.95;101447.59;5057812;56;1138835;-72
2023/05/13 09:36:59;;;;;;;3.37;1.65;;;;;;;21.37;28.39;101444.94;5029322;57;1138712;-76
2023/05/13 09:42:05;;;;;;;4.45;1.98;;;;;;;21.60;27.74;101445.09;4953551;57;1138987;-75
2023/05/13 09:47:16;;;;;;;6.17;2.00;;;;;;;21.77;28.38;101451.33;4941641;58;1138971;-73
2023/05/13 09:52:23;;;;;;;5.15;1.80;;;;;;;21.89;26.69;101438.34;4951238;58;1138814;-75
2023/05/13 09:57:29;;;;;;;7.22;2.22;;;;;;;22.00;26.43;101431.28;4930390;57;1138912;-77
2023/05/13 10:02:36;;;;;;;11.68;2.50;;;;;;;22.08;26.84;101414.61;4943123;57;1138977;-76
2023/05/13 10:07:41;;;;;;;5.22;1.50;;;;;;;22.24;26.06;101420.97;4932186;57;1141043;-74
2023/05/13 10:12:48;;;;;;;4.67;2.00;;;;;;;22.40;27.95;101408.79;4970306;56;1138943;-76
2023/05/13 10:17:54;;;;;;;22.87;3.27;;;;;;;22.48;25.66;101399.81;4947075;57;1138937;-73
2023/05/13 10:23:00;;;;;;;5.75;1.98;;;;;;;22.47;25.38;101396.28;4960480;57;1141010;-75
2023/05/13 10:28:06;;;;;;;23.90;2.70;;;;;;;22.61;25.56;101404.97;5003024;57;1138864;-77
2023/05/13 10:33:12;;;;;;;12.77;2.53;;;;;;;22.81;25.47;101397.33;4980395;56;1140914;-74
2023/05/13 10:38:25;;;;;;;5.67;2.20;;;;;;;22.84;25.72;101388.05;4939484;57;1140924;-74
2023/05/13 10:43:32;;;;;;;15.48;2.58;;;;;;;22.67;23.77;101401.59;4997235;55;1138920;-76
2023/05/13 10:48:49;;;;;;;7.05;2.52;;;;;;;22.52;24.55;101391.20;4934227;57;1140846;-75
2023/05/13 10:53:57;;;;;;;2.33;2.08;;;;;;;22.73;25.02;101388.75;4945997;57;1138793;-74
2023/05/13 10:59:05;;;;;;;8.90;2.02;;;;;;;22.91;24.92;101405.22;4974949;57;1138983;-75
2023/05/13 11:04:17;;;;;;;4.97;1.85;;;;;;;22.96;24.88;101395.55;4864388;57;1138771;-75
2023/05/13 11:09:28;;;;;;;6.05;1.98;;;;;;;23.11;24.73;101388.88;4868872;57;1138920;-76
2023/05/13 11:14:33;;;;;;;8.38;2.10;;;;;;;23.20;24.72;101395.06;4934229;57;1139060;-74
2023/05/13 11:19:48;;;;;;;2.30;2.10;;;;;;;23.30;24.68;101396.49;4913615;57;1138877;-75
2023/05/13 11:25:12;;;;;;;5.22;2.30;;;;;;;23.35;24.25;101381.11;4996378;56;1138726;-75
2023/05/13 11:30:26;;;;;;;5.40;2.40;;;;;;;23.35;24.64;101373.02;4892313;58;1138789;-75
2023/05/13 11:35:34;;;;;;;7.72;2.90;;;;;;;23.43;23.15;101368.38;4894431;57;1138899;-75
2023/05/13 11:40:40;;;;;;;6.70;2.90;;;;;;;23.47;23.63;101382.35;4896066;57;1138907;-75
2023/05/13 11:45:46;;;;;;;4.53;2.75;;;;;;;23.46;23.41;101379.32;4827768;58;1138797;-74
2023/05/13 11:50:52;;;;;;;3.58;2.50;;;;;;;23.42;23.99;101380.19;5037611;56;1138863;-74
2023/05/13 11:56:11;;;;;;;2.52;1.90;;;;;;;23.45;24.59;101374.43;5057682;55;1138710;-76
2023/05/13 12:01:17;;;;;;;2.42;2.22;;;;;;;23.46;23.84;101367.17;5038268;55;1138737;-75
2023/05/13 12:06:22;;;;;;;8.70;2.00;;;;;;;23.65;23.98;101363.16;5048769;55;1138775;-75
2023/05/13 12:11:28;;;;;;;8.63;2.33;;;;;;;23.77;24.82;101365.21;5079170;55;1139004;-75
2023/05/13 12:16:34;;;;;;;12.50;3.12;;;;;;;23.95;22.87;101370.78;5090821;55;1138839;-76
2023/05/13 12:21:39;;;;;;;2.83;2.07;;;;;;;23.98;23.69;101365.84;4963364;56;1140848;-76
2023/05/13 12:26:45;;;;;;;8.75;2.17;;;;;;;23.90;24.12;101365.92;4838419;57;1138719;-76
2023/05/13 12:32:06;;;;;;;5.78;2.85;;;;;;;23.91;23.98;101367.59;4807636;57;1138849;-76
2023/05/13 12:37:13;;;;;;;5.15;2.22;;;;;;;24.00;24.01;101370.53;4880541;56;1138694;-75
2023/05/13 12:42:19;;;;;;;13.93;2.83;;;;;;;24.11;23.81;101363.84;4848076;58;1139047;-75
2023/05/13 12:47:25;;;;;;;4.90;2.03;;;;;;;24.00;22.50;101376.44;5043197;56;1140996;-74
2023/05/13 12:52:30;;;;;;;12.55;3.85;;;;;;;23.89;23.35;101372.86;4912060;56;1139000;-76
2023/05/13 12:57:36;;;;;;;9.80;6.58;;;;;;;23.74;23.13;101373.68;4888754;58;1141156;-75
2023/05/13 13:02:41;;;;;;;10.58;3.40;;;;;;;23.69;23.98;101366.63;4978243;58;1138853;-75
2023/05/13 13:07:49;;;;;;;4.87;2.22;;;;;;;23.67;23.75;101357.06;4958648;58;1140838;-76
2023/05/13 13:12:54;;;;;;;5.62;2.95;;;;;;;23.74;23.55;101357.47;4958325;57;1138914;-75
2023/05/13 13:18:00;;;;;;;5.87;1.98;;;;;;;23.80;23.26;101355.39;4944397;57;1138831;-76
2023/05/13 13:23:06;;;;;;;10.98;2.27;;;;;;;23.76;23.31;101355.43;4877970;57;1138732;-76
2023/05/13 13:28:12;;;;;;;8.65;2.15;;;;;;;23.88;23.51;101347.70;4907602;57;1141156;-76
2023/05/13 13:33:22;;;;;;;7.78;2.60;;;;;;;23.92;22.87;101350.36;4942799;57;1138891;-76
2023/05/13 13:38:29;;;;;;;6.53;2.17;;;;;;;23.86;23.41;101348.39;4874342;58;1138689;-75
2023/05/13 13:43:36;;;;;;;5.37;1.95;;;;;;;23.80;23.08;101339.19;4924999;57;1138770;-76
2023/05/13 13:48:42;;;;;;;2.77;2.40;;;;;;;23.85;22.91;101338.09;4920144;57;1139018;-75
2023/05/13 13:53:50;;;;;;;7.05;3.30;;;;;;;23.73;22.80;101334.19;4978247;57;1138695;-74
2023/05/13 13:58:55;;;;;;;2.75;2.08;;;;;;;23.61;23.00;101347.82;4917588;58;1138780;-75
2023/05/13 14:04:19;;;;;;;14.98;9.33;;;;;;;23.62;23.44;101334.64;4908511;57;1138839;-76
2023/05/13 14:09:24;;;;;;;7.10;3.10;;;;;;;23.77;24.01;101333.31;4882470;58;1140808;-75
2023/05/13 14:14:30;;;;;;;5.20;2.40;;;;;;;23.80;24.26;101333.78;4831102;58;1138862;-74
2023/05/13 14:19:35;;;;;;;6.00;2.00;;;;;;;23.94;24.50;101330.75;4922778;57;1138733;-76
2023/05/13 14:24:41;;;;;;;7.15;2.12;;;;;;;23.91;23.04;101328.42;5037718;56;1138770;-75
2023/05/13 14:29:48;;;;;;;5.00;2.35;;;;;;;23.98;24.08;101309.61;5008046;57;1138993;-75
2023/05/13 14:34:53;;;;;;;12.43;3.52;;;;;;;23.90;23.82;101313.23;4904924;57;1138760;-74
2023/05/13 14:39:59;;;;;;;7.60;4.78;;;;;;;23.99;23.99;101306.69;4951280;57;1141068;-76
2023/05/13 14:45:05;;;;;;;11.50;2.02;;;;;;;24.09;23.88;101305.08;5053254;57;1138669;-77
2023/05/13 14:50:11;;;;;;;8.68;2.10;;;;;;;24.12;23.54;101302.84;5036951;57;1141001;-79
2023/05/13 14:55:17;;;;;;;11.70;3.40;;;;;;;23.99;23.53;101309.91;5036668;57;1138786;-76
2023/05/13 15:00:22;;;;;;;11.90;2.93;;;;;;;23.99;24.01;101307.20;5056741;57;1140867;-76
2023/05/13 15:05:28;;;;;;;5.60;2.92;;;;;;;24.11;23.84;101301.16;5018970;57;1140945;-76
2023/05/13 15:10:34;;;;;;;8.73;4.00;;;;;;;23.97;23.94;101310.12;4965562;57;1138829;-75
2023/05/13 15:15:39;;;;;;;2.20;1.85;;;;;;;23.83;23.42;101309.08;4882622;58;1138799;-74
2023/05/13 15:20:45;;;;;;;5.08;2.58;;;;;;;23.61;23.11;101303.26;4905862;58;1138727;-76
2023/05/13 15:25:51;;;;;;;7.83;2.80;;;;;;;23.62;23.66;101302.23;4943265;56;1138874;-74
2023/05/13 15:30:57;;;;;;;4.20;2.70;;;;;;;23.74;24.73;101294.50;4928478;56;1138811;-76
2023/05/13 15:36:04;;;;;;;5.20;2.65;;;;;;;23.80;24.35;101289.21;4896017;56;1138734;-77
2023/05/13 15:41:10;;;;;;;7.83;3.25;;;;;;;23.74;24.17;101284.54;4930436;56;1138799;-80
2023/05/13 15:46:15;;;;;;;19.75;7.62;;;;;;;23.66;24.06;101297.31;4968928;56;1138823;-75
2023/05/13 15:51:21;;;;;;;10.70;3.62;;;;;;;23.55;23.76;101289.64;5010837;56;1140822;-74
2023/05/13 15:56:27;;;;;;;14.40;3.62;;;;;;;23.46;24.40;101292.41;4971792;56;1140914;-77
2023/05/13 16:01:33;;;;;;;9.95;4.58;;;;;;;23.43;24.49;101286.53;5021252;56;1140831;-74
2023/05/13 16:06:38;;;;;;;5.67;3.45;;;;;;;23.35;24.35;101271.78;5044803;56;1139250;-75
2023/05/13 16:11:44;;;;;;;6.50;2.98;;;;;;;23.39;24.19;101270.36;5071791;57;1138874;-77
2023/05/13 16:16:49;;;;;;;8.08;2.22;;;;;;;23.36;24.16;101259.45;5017033;56;1138944;-81
2023/05/13 16:21:55;;;;;;;4.30;3.90;;;;;;;23.32;24.38;101256.78;4956643;57;1138827;-80
2023/05/13 16:27:00;;;;;;;12.35;4.45;;;;;;;23.30;24.78;101257.98;5121795;55;1138663;-77
2023/05/13 16:32:07;;;;;;;4.15;2.33;;;;;;;23.25;24.88;101250.43;5078950;56;1140792;-76
2023/05/13 16:37:13;;;;;;;9.33;3.12;;;;;;;23.20;24.68;101253.38;5065231;55;1138800;-81
2023/05/13 16:42:18;;;;;;;6.40;4.00;;;;;;;23.21;24.98;101249.66;5054402;55;1138922;-75
2023/05/13 16:47:24;;;;;;;11.00;3.47;;;;;;;23.11;24.53;101243.15;5031413;56;1138846;-74
2023/05/13 16:52:40;;;;;;;5.10;3.40;;;;;;;23.07;24.94;101246.72;5082671;54;1140967;-75
2023/05/13 16:57:47;;;;;;;18.77;4.40;;;;;;;23.07;25.55;101245.88;5083997;55;1138957;-77
2023/05/13 17:02:53;;;;;;;34.65;14.33;;;;;;;22.97;25.35;101253.39;5079279;56;1140773;-76
2023/05/13 17:07:59;;;;;;;8.03;5.33;;;;;;;22.91;25.75;101250.94;5089288;56;1142990;-75
2023/05/13 17:13:05;;;;;;;3.05;2.75;;;;;;;22.84;25.75;101254.02;5080116;55;1138679;-75
2023/05/13 17:18:10;;;;;;;7.67;2.02;;;;;;;22.82;26.05;101249.31;5015786;57;1138779;-75
2023/05/13 17:23:16;;;;;;;6.42;2.50;;;;;;;22.80;26.49;101249.48;5057995;55;1138823;-76
2023/05/13 17:28:22;;;;;;;3.57;2.07;;;;;;;22.79;25.95;101252.36;5067524;56;1138808;-75
2023/05/13 17:33:27;;;;;;;37.63;25.97;;;;;;;22.70;25.84;101246.68;5132612;55;1138834;-75
2023/05/13 17:38:33;;;;;;;20.55;5.10;;;;;;;22.60;26.77;101241.54;5155333;55;1142929;-75
2023/05/13 17:43:38;;;;;;;15.38;8.70;;;;;;;22.55;26.77;101248.48;5157065;55;1140780;-75
2023/05/13 17:48:44;;;;;;;31.50;14.85;;;;;;;22.53;27.14;101251.34;5157108;55;1140877;-76
2023/05/13 17:53:50;;;;;;;18.82;11.68;;;;;;;22.48;27.43;101256.42;5177116;55;1142879;-76
2023/05/13 17:58:55;;;;;;;33.83;22.62;;;;;;;22.42;28.36;101259.34;5156460;55;1142879;-76
2023/05/13 18:04:01;;;;;;;45.95;27.27;;;;;;;22.34;28.60;101258.03;5156954;55;1143107;-76
2023/05/13 18:09:07;;;;;;;34.83;20.65;;;;;;;22.25;28.78;101259.11;5171158;55;1142951;-75
2023/05/13 18:14:13;;;;;;;14.03;6.22;;;;;;;22.19;29.34;101261.66;5112917;55;1142913;-76
2023/05/13 18:19:18;;;;;;;40.67;7.95;;;;;;;22.04;32.06;101258.88;5079495;56;1141253;-76
2023/05/13 18:24:24;;;;;;;28.83;10.53;;;;;;;22.04;32.06;101258.88;5087986;56;1141024;-75
2023/05/13 18:29:30;;;;;;;32.48;9.20;;;;;;;21.97;33.20;101274.03;5055807;55;1142872;-79
2023/05/13 18:34:37;;;;;;;28.95;9.03;;;;;;;21.75;33.84;101264.34;5121910;55;1140905;-76
2023/05/13 18:39:44;;;;;;;23.00;7.55;;;;;;;21.60;34.39;101268.77;5183572;55;1140811;-77
2023/05/13 18:44:50;;;;;;;27.02;6.37;;;;;;;21.50;34.81;101278.05;5117943;56;1140810;-79
2023/05/13 18:49:55;;;;;;;40.05;6.67;;;;;;;21.31;35.63;101283.30;5162681;55;1140891;-78
2023/05/13 18:55:06;;;;;;;55.25;6.65;;;;;;;21.04;36.54;101287.99;5081689;55;1140868;-79
2023/05/13 19:00:12;;;;;;;53.63;15.30;;;;;;;20.65;37.51;101290.47;5134134;55;1140881;-78
2023/05/13 19:05:18;;;;;;;52.25;8.15;;;;;;;20.24;38.01;101292.70;5184502;55;1143062;-77
2023/05/13 19:10:24;;;;;;;53.93;7.07;;;;;;;19.91;38.57;101299.27;5094025;56;1141060;-79
2023/05/13 19:15:29;;;;;;;22.62;4.60;;;;;;;19.71;39.22;101291.63;5109384;55;1140870;-77
2023/05/13 19:20:35;;;;;;;12.28;3.72;;;;;;;19.57;39.49;101303.27;5098285;56;1140980;-79
2023/05/13 19:25:41;;;;;;;13.36;3.60;;;;;;;19.47;39.91;101301.17;5099039;56;1140880;-76
2023/05/13 19:30:46;;;;;;;20.32;4.60;;;;;;;19.44;40.48;101301.48;5118805;56;1141019;-78
2023/05/13 19:35:52;;;;;;;19.42;4.78;;;;;;;19.48;40.78;101302.86;5098769;56;1140907;-75
2023/05/13 19:40:58;;;;;;;41.73;6.65;;;;;;;19.51;41.17;101309.29;5098421;56;1140843;-78
2023/05/13 19:46:04;;;;;;;39.10;7.90;;;;;;;19.49;41.53;101300.55;5114595;56;1140849;-78
2023/05/13 19:51:10;;;;;;;32.15;8.38;;;;;;;19.41;42.21;101311.17;5101075;55;1140922;-78
2023/05/13 19:56:16;;;;;;;26.52;7.16;;;;;;;19.12;42.63;101324.87;5115416;55;1140825;-78
2023/05/13 20:01:23;;;;;;;17.82;6.53;;;;;;;18.89;43.15;101319.65;5118988;56;1141151;-77
2023/05/13 20:06:29;;;;;;;15.77;5.20;;;;;;;18.63;43.47;101324.92;5099519;56;1140871;-75
2023/05/13 20:11:34;;;;;;;14.13;5.12;;;;;;;18.58;44.02;101316.00;5094180;55;1140864;-77
2023/05/13 20:16:40;;;;;;;14.05;5.85;;;;;;;18.56;44.45;101319.28;5062352;55;1140826;-80
2023/05/13 20:21:46;;;;;;;15.05;7.05;;;;;;;18.57;44.63;101317.45;4971915;56;1140849;-79
2023/05/13 20:26:52;;;;;;;12.05;6.17;;;;;;;18.52;45.50;101312.53;4883893;57;1140870;-80
2023/05/13 20:31:57;;;;;;;16.52;6.30;;;;;;;18.42;45.97;101313.11;4958820;57;1140983;-80
2023/05/13 20:37:04;;;;;;;12.40;6.15;;;;;;;18.45;46.26;101313.30;4903187;57;1141014;-78
2023/05/13 20:42:10;;;;;;;15.87;6.07;;;;;;;18.52;46.18;101315.71;4964135;55;1140871;-77
2023/05/13 20:47:17;;;;;;;34.20;14.13;;;;;;;18.55;46.80;101320.77;4983097;57;1140991;-79
2023/05/13 20:52:23;;;;;;;46.73;17.73;;;;;;;18.28;47.78;101314.95;4950816;56;1142846;-78
2023/05/13 20:57:29;;;;;;;31.60;11.87;;;;;;;17.93;49.00;101317.86;4979782;56;1142927;-78
2023/05/13 21:02:35;;;;;;;26.23;11.18;;;;;;;17.68;49.80;101318.52;4919745;57;1143012;-76
2023/05/13 21:07:40;;;;;;;25.43;9.83;;;;;;;17.69;50.71;101315.35;4876468;58;1143306;-75
2023/05/13 21:12:46;;;;;;;22.43;10.63;;;;;;;17.82;51.29;101308.69;4970663;57;1140997;-76
2023/05/13 21:17:53;;;;;;;63.53;37.70;;;;;;;17.92;51.52;101317.51;5000012;56;1142931;-76
2023/05/13 21:23:00;;;;;;;32.23;16.37;;;;;;;18.00;52.07;101324.81;4969182;57;1142862;-78
2023/05/13 21:28:05;;;;;;;88.20;37.23;;;;;;;18.01;52.61;101325.17;4954854;58;1142978;-80
2023/05/13 21:33:11;;;;;;;56.73;26.77;;;;;;;18.03;52.86;101321.81;4880557;58;1142846;-77
2023/05/13 21:38:17;;;;;;;42.50;19.73;;;;;;;18.04;53.22;101329.36;4978276;57;1143029;-79
2023/05/13 21:43:23;;;;;;;34.03;15.40;;;;;;;17.97;53.26;101326.94;4974567;58;1142983;-76
2023/05/13 21:48:28;;;;;;;14.65;8.65;;;;;;;17.79;53.04;101315.66;4970745;57;1142913;-76
2023/05/13 21:53:34;;;;;;;10.90;7.50;;;;;;;17.67;53.01;101320.84;4930215;57;1140952;-75
2023/05/13 21:58:40;;;;;;;12.30;7.03;;;;;;;17.52;52.78;101327.11;4961485;57;1140929;-79
2023/05/13 22:03:46;;;;;;;16.40;6.17;;;;;;;17.36;52.55;101318.84;5086291;56;1140817;-76
2023/05/13 22:08:51;;;;;;;14.20;6.33;;;;;;;17.20;52.87;101322.09;4982323;56;1140934;-76
2023/05/13 22:13:58;;;;;;;21.33;6.53;;;;;;;17.18;53.33;101320.05;4935801;57;1140888;-77
2023/05/13 22:19:04;;;;;;;20.93;6.83;;;;;;;17.11;53.70;101320.26;5022471;57;1142043;-76
2023/05/13 22:24:09;;;;;;;23.17;8.43;;;;;;;16.96;54.54;101320.33;5011090;57;1141058;-75
2023/05/13 22:29:15;;;;;;;21.40;7.83;;;;;;;16.90;54.56;101317.39;5010346;57;1141056;-79
2023/05/13 22:34:21;;;;;;;9.73;6.27;;;;;;;16.87;54.74;101310.50;5030880;57;1140811;-76
2023/05/13 22:39:27;;;;;;;14.03;6.37;;;;;;;16.79;54.73;101311.70;4959528;57;1138804;-75
2023/05/13 22:44:32;;;;;;;20.27;5.77;;;;;;;16.57;54.75;101307.42;5010875;57;1140897;-77
2023/05/13 22:49:38;;;;;;;13.90;6.00;;;;;;;16.35;55.08;101311.16;5063051;56;1141148;-77
2023/05/13 22:54:43;;;;;;;19.40;5.90;;;;;;;16.18;55.76;101313.17;4898870;58;1140941;-79
2023/05/13 22:59:49;;;;;;;18.47;6.27;;;;;;;16.07;56.54;101310.09;4958666;57;1140880;-79
2023/05/13 23:04:55;;;;;;;16.17;5.92;;;;;;;16.12;56.86;101309.70;4879982;58;1141106;-78